Terminal Aerodrome Forecast
Issued by NWS Cleveland, OH

Home | Current Version | Previous Version | Text Only | Print | Product List | Glossary Off
Versions: 1 2 3 4 5 6 7 8 9 10 11 12 13 14 15 16 17 18

000
FTUS41 KCLE 260520
TAFERI
TAF
KERI 260520Z 2606/2706 23005KT P6SM SCT080
     FM260900 27004KT P6SM SCT080
      TEMPO 2609/2613 5SM BR BKN080
     FM261500 30008KT P6SM SCT250
     FM270000 VRB03KT P6SM SKC=

USA.gov is the U.S. government's official web portal to all federal, state and local government web resources and services.